sensor_id;sensor_type;location;lat;lon;timestamp;pressure;altitude;pressure_sealevel;temperature;humidity
75401;BME280;63974;47.538;18.972;2023-04-08T00:00:37;100389.22;;;4.46;85.97
75401;BME280;63974;47.538;18.972;2023-04-08T00:03:40;100391.66;;;4.77;84.63
75401;BME280;63974;47.538;18.972;2023-04-08T00:06:43;100392.19;;;4.71;84.67
75401;BME280;63974;47.538;18.972;2023-04-08T00:09:46;100397.75;;;4.76;84.48
75401;BME280;63974;47.538;18.972;2023-04-08T00:12:49;100394.41;;;4.55;84.73
75401;BME280;63974;47.538;18.972;2023-04-08T00:15:52;100392.63;;;4.46;85.10
75401;BME280;63974;47.538;18.972;2023-04-08T00:18:55;100389.97;;;4.37;85.24
75401;BME280;63974;47.538;18.972;2023-04-08T00:21:58;100390.13;;;4.35;85.72
75401;BME280;63974;47.538;18.972;2023-04-08T00:25:01;100392.75;;;4.25;85.95
75401;BME280;63974;47.538;18.972;2023-04-08T00:28:04;100384.22;;;4.24;86.25
75401;BME280;63974;47.538;18.972;2023-04-08T00:31:08;100389.94;;;4.07;86.69
75401;BME280;63974;47.538;18.972;2023-04-08T00:34:11;100391.31;;;4.31;85.71
75401;BME280;63974;47.538;18.972;2023-04-08T00:37:13;100391.53;;;4.49;84.94
75401;BME280;63974;47.538;18.972;2023-04-08T00:40:17;100388.94;;;4.69;84.18
75401;BME280;63974;47.538;18.972;2023-04-08T00:43:19;100391.53;;;4.79;83.65
75401;BME280;63974;47.538;18.972;2023-04-08T00:46:22;100396.69;;;4.79;83.45
75401;BME280;63974;47.538;18.972;2023-04-08T00:49:26;100392.91;;;4.83;83.39
75401;BME280;63974;47.538;18.972;2023-04-08T00:52:29;100401.69;;;4.80;83.53
75401;BME280;63974;47.538;18.972;2023-04-08T00:55:32;100394.41;;;4.85;83.24
75401;BME280;63974;47.538;18.972;2023-04-08T00:58:35;100390.69;;;4.99;83.36
75401;BME280;63974;47.538;18.972;2023-04-08T01:05:13;100381.81;;;4.82;83.53
75401;BME280;63974;47.538;18.972;2023-04-08T01:08:17;100387.72;;;4.73;83.75
75401;BME280;63974;47.538;18.972;2023-04-08T01:11:20;100382.69;;;4.62;84.48
75401;BME280;63974;47.538;18.972;2023-04-08T01:14:25;100383.22;;;4.56;84.74
75401;BME280;63974;47.538;18.972;2023-04-08T01:17:31;100378.00;;;4.47;84.92
75401;BME280;63974;47.538;18.972;2023-04-08T01:20:35;100385.28;;;4.42;85.55
75401;BME280;63974;47.538;18.972;2023-04-08T01:24:12;100381.22;;;4.39;85.65
75401;BME280;63974;47.538;18.972;2023-04-08T01:27:19;100388.44;;;4.45;85.16
75401;BME280;63974;47.538;18.972;2023-04-08T01:30:24;100378.16;;;4.45;85.20
75401;BME280;63974;47.538;18.972;2023-04-08T01:33:28;100383.22;;;4.36;85.78
75401;BME280;63974;47.538;18.972;2023-04-08T01:36:32;100383.44;;;4.24;86.25
75401;BME280;63974;47.538;18.972;2023-04-08T01:39:39;100388.13;;;4.19;86.83
75401;BME280;63974;47.538;18.972;2023-04-08T01:42:45;100391.50;;;4.19;86.53
75401;BME280;63974;47.538;18.972;2023-04-08T01:45:49;100394.81;;;4.30;85.70
75401;BME280;63974;47.538;18.972;2023-04-08T01:48:56;100396.63;;;4.39;85.31
75401;BME280;63974;47.538;18.972;2023-04-08T01:52:01;100394.88;;;4.40;85.31
75401;BME280;63974;47.538;18.972;2023-04-08T01:55:05;100394.88;;;4.40;85.45
75401;BME280;63974;47.538;18.972;2023-04-08T01:58:11;100398.31;;;4.50;85.11
75401;BME280;63974;47.538;18.972;2023-04-08T02:01:20;100399.34;;;4.38;85.32
75401;BME280;63974;47.538;18.972;2023-04-08T02:04:24;100399.47;;;4.36;85.63
75401;BME280;63974;47.538;18.972;2023-04-08T02:07:27;100395.28;;;4.35;85.31
75401;BME280;63974;47.538;18.972;2023-04-08T02:10:32;100395.38;;;4.34;85.74
75401;BME280;63974;47.538;18.972;2023-04-08T02:13:35;100392.81;;;4.34;85.23
75401;BME280;63974;47.538;18.972;2023-04-08T02:16:58;100401.50;;;4.42;84.66
75401;BME280;63974;47.538;18.972;2023-04-08T02:20:08;100401.03;;;4.48;84.95
75401;BME280;63974;47.538;18.972;2023-04-08T02:23:19;100401.78;;;4.39;84.85
75401;BME280;63974;47.538;18.972;2023-04-08T02:26:23;100397.84;;;4.35;85.27
75401;BME280;63974;47.538;18.972;2023-04-08T02:29:29;100388.34;;;4.36;85.16
75401;BME280;63974;47.538;18.972;2023-04-08T02:32:33;100391.72;;;4.27;85.35
75401;BME280;63974;47.538;18.972;2023-04-08T02:35:37;100387.88;;;4.22;85.43
75401;BME280;63974;47.538;18.972;2023-04-08T02:38:49;100392.38;;;4.29;85.15
75401;BME280;63974;47.538;18.972;2023-04-08T02:41:52;100390.13;;;4.35;84.95
75401;BME280;63974;47.538;18.972;2023-04-08T02:44:56;100390.19;;;4.25;85.75
75401;BME280;63974;47.538;18.972;2023-04-08T02:47:59;100388.00;;;4.20;85.64
75401;BME280;63974;47.538;18.972;2023-04-08T02:51:03;100386.63;;;4.16;86.02
75401;BME280;63974;47.538;18.972;2023-04-08T02:54:06;100388.63;;;4.13;85.97
75401;BME280;63974;47.538;18.972;2023-04-08T02:57:08;100392.56;;;4.17;85.80
75401;BME280;63974;47.538;18.972;2023-04-08T03:00:14;100381.91;;;4.21;85.70
75401;BME280;63974;47.538;18.972;2023-04-08T03:03:19;100385.38;;;4.31;85.25
75401;BME280;63974;47.538;18.972;2023-04-08T03:06:25;100384.41;;;4.32;85.40
75401;BME280;63974;47.538;18.972;2023-04-08T03:09:28;100391.00;;;4.25;85.31
75401;BME280;63974;47.538;18.972;2023-04-08T03:12:31;100392.25;;;4.30;85.60
75401;BME280;63974;47.538;18.972;2023-04-08T03:15:34;100391.75;;;4.36;84.99
75401;BME280;63974;47.538;18.972;2023-04-08T03:18:37;100393.13;;;4.40;84.86
75401;BME280;63974;47.538;18.972;2023-04-08T03:21:40;100391.63;;;4.38;84.91
75401;BME280;63974;47.538;18.972;2023-04-08T03:24:43;100390.81;;;4.37;84.67
75401;BME280;63974;47.538;18.972;2023-04-08T03:27:46;100395.22;;;4.26;85.59
75401;BME280;63974;47.538;18.972;2023-04-08T03:30:49;100399.66;;;4.24;85.38
75401;BME280;63974;47.538;18.972;2023-04-08T03:33:51;100393.13;;;4.20;85.33
75401;BME280;63974;47.538;18.972;2023-04-08T03:36:54;100397.66;;;4.28;84.79
75401;BME280;63974;47.538;18.972;2023-04-08T03:39:57;100400.66;;;4.32;84.47
75401;BME280;63974;47.538;18.972;2023-04-08T03:43:00;100397.38;;;4.30;84.95
75401;BME280;63974;47.538;18.972;2023-04-08T03:46:03;100400.72;;;4.22;85.06
75401;BME280;63974;47.538;18.972;2023-04-08T03:49:06;100413.06;;;4.07;85.83
75401;BME280;63974;47.538;18.972;2023-04-08T03:52:09;100411.88;;;4.11;85.52
75401;BME280;63974;47.538;18.972;2023-04-08T03:55:11;100416.31;;;4.09;85.94
75401;BME280;63974;47.538;18.972;2023-04-08T03:58:14;100416.31;;;4.09;85.90
75401;BME280;63974;47.538;18.972;2023-04-08T04:01:17;100421.09;;;4.14;85.45
75401;BME280;63974;47.538;18.972;2023-04-08T04:04:20;100411.56;;;4.25;85.21
75401;BME280;63974;47.538;18.972;2023-04-08T04:07:23;100420.91;;;4.26;85.07
75401;BME280;63974;47.538;18.972;2023-04-08T04:10:26;100436.34;;;4.26;84.82
75401;BME280;63974;47.538;18.972;2023-04-08T04:13:29;100437.50;;;4.02;85.87
75401;BME280;63974;47.538;18.972;2023-04-08T04:16:32;100436.41;;;4.15;85.51
75401;BME280;63974;47.538;18.972;2023-04-08T04:19:35;100439.81;;;4.25;84.88
75401;BME280;63974;47.538;18.972;2023-04-08T04:22:38;100428.94;;;4.32;84.63
75401;BME280;63974;47.538;18.972;2023-04-08T04:25:41;100442.66;;;4.42;84.38
75401;BME280;63974;47.538;18.972;2023-04-08T04:28:44;100447.03;;;4.31;84.53
75401;BME280;63974;47.538;18.972;2023-04-08T04:31:47;100449.97;;;4.06;85.73
75401;BME280;63974;47.538;18.972;2023-04-08T04:34:49;100449.41;;;4.23;85.54
75401;BME280;63974;47.538;18.972;2023-04-08T04:37:52;100454.81;;;4.20;85.52
75401;BME280;63974;47.538;18.972;2023-04-08T04:40:55;100452.50;;;4.17;85.56
75401;BME280;63974;47.538;18.972;2023-04-08T04:43:59;100457.44;;;4.29;84.95
75401;BME280;63974;47.538;18.972;2023-04-08T04:47:02;100457.81;;;4.25;85.24
75401;BME280;63974;47.538;18.972;2023-04-08T04:50:06;100457.50;;;4.19;85.30
75401;BME280;63974;47.538;18.972;2023-04-08T04:53:09;100451.03;;;4.24;85.00
75401;BME280;63974;47.538;18.972;2023-04-08T04:56:11;100458.28;;;4.30;84.85
75401;BME280;63974;47.538;18.972;2023-04-08T04:59:14;100465.16;;;4.29;85.04
75401;BME280;63974;47.538;18.972;2023-04-08T05:02:17;100464.09;;;4.32;84.98
75401;BME280;63974;47.538;18.972;2023-04-08T05:05:20;100464.53;;;4.37;85.07
75401;BME280;63974;47.538;18.972;2023-04-08T05:08:23;100477.56;;;4.45;84.28
75401;BME280;63974;47.538;18.972;2023-04-08T05:11:29;100471.31;;;4.38;84.44
75401;BME280;63974;47.538;18.972;2023-04-08T05:14:32;100482.81;;;4.43;84.51
75401;BME280;63974;47.538;18.972;2023-04-08T05:17:35;100478.19;;;4.37;84.62
75401;BME280;63974;47.538;18.972;2023-04-08T05:20:38;100482.97;;;4.42;84.90
75401;BME280;63974;47.538;18.972;2023-04-08T05:23:41;100485.84;;;4.48;84.82
75401;BME280;63974;47.538;18.972;2023-04-08T05:26:44;100481.44;;;4.60;84.43
75401;BME280;63974;47.538;18.972;2023-04-08T05:29:47;100482.53;;;4.57;83.93
75401;BME280;63974;47.538;18.972;2023-04-08T05:32:50;100481.94;;;4.74;83.56
75401;BME280;63974;47.538;18.972;2023-04-08T05:35:53;100481.88;;;4.85;83.17
75401;BME280;63974;47.538;18.972;2023-04-08T05:38:56;100489.63;;;4.95;82.79
75401;BME280;63974;47.538;18.972;2023-04-08T05:41:59;100484.19;;;4.88;83.18
75401;BME280;63974;47.538;18.972;2023-04-08T05:45:02;100483.09;;;4.81;83.84
75401;BME280;63974;47.538;18.972;2023-04-08T05:48:05;100482.94;;;4.83;83.62
75401;BME280;63974;47.538;18.972;2023-04-08T05:51:12;100475.59;;;4.99;83.08
75401;BME280;63974;47.538;18.972;2023-04-08T05:54:15;100485.34;;;5.05;82.71
75401;BME280;63974;47.538;18.972;2023-04-08T05:57:18;100488.44;;;4.99;82.99
75401;BME280;63974;47.538;18.972;2023-04-08T06:00:22;100502.94;;;5.00;83.10
75401;BME280;63974;47.538;18.972;2023-04-08T06:03:25;100494.63;;;5.17;82.44
75401;BME280;63974;47.538;18.972;2023-04-08T06:06:28;100496.53;;;5.24;81.88
75401;BME280;63974;47.538;18.972;2023-04-08T06:09:34;100496.06;;;5.10;82.50
75401;BME280;63974;47.538;18.972;2023-04-08T06:12:38;100495.31;;;5.28;81.73
75401;BME280;63974;47.538;18.972;2023-04-08T06:15:40;100495.09;;;5.41;81.72
75401;BME280;63974;47.538;18.972;2023-04-08T06:18:43;100491.88;;;5.48;81.62
75401;BME280;63974;47.538;18.972;2023-04-08T06:21:46;100495.66;;;5.44;82.23
75401;BME280;63974;47.538;18.972;2023-04-08T06:24:49;100491.69;;;5.40;81.79
75401;BME280;63974;47.538;18.972;2023-04-08T06:27:52;100501.38;;;5.48;81.49
75401;BME280;63974;47.538;18.972;2023-04-08T06:30:55;100504.88;;;5.47;81.49
75401;BME280;63974;47.538;18.972;2023-04-08T06:33:58;100506.75;;;5.45;81.74
75401;BME280;63974;47.538;18.972;2023-04-08T06:37:00;100507.59;;;5.55;81.37
75401;BME280;63974;47.538;18.972;2023-04-08T06:40:05;100514.38;;;5.56;81.24
75401;BME280;63974;47.538;18.972;2023-04-08T06:43:09;100515.22;;;5.66;81.13
75401;BME280;63974;47.538;18.972;2023-04-08T06:46:14;100520.38;;;5.56;81.12
75401;BME280;63974;47.538;18.972;2023-04-08T06:49:17;100519.53;;;5.56;80.64
75401;BME280;63974;47.538;18.972;2023-04-08T06:52:20;100519.97;;;5.61;80.33
75401;BME280;63974;47.538;18.972;2023-04-08T06:55:23;100525.53;;;5.66;80.14
75401;BME280;63974;47.538;18.972;2023-04-08T06:58:26;100530.91;;;5.83;79.45
75401;BME280;63974;47.538;18.972;2023-04-08T07:01:29;100540.69;;;5.99;79.50
75401;BME280;63974;47.538;18.972;2023-04-08T07:04:32;100543.53;;;6.05;79.04
75401;BME280;63974;47.538;18.972;2023-04-08T07:07:35;100538.78;;;6.20;78.41
75401;BME280;63974;47.538;18.972;2023-04-08T07:10:40;100541.41;;;6.29;77.83
75401;BME280;63974;47.538;18.972;2023-04-08T07:13:43;100541.66;;;6.36;77.31
75401;BME280;63974;47.538;18.972;2023-04-08T07:16:46;100547.22;;;6.50;77.11
75401;BME280;63974;47.538;18.972;2023-04-08T07:19:48;100543.72;;;6.51;76.97
75401;BME280;63974;47.538;18.972;2023-04-08T07:22:52;100548.84;;;6.42;76.42
75401;BME280;63974;47.538;18.972;2023-04-08T07:25:54;100546.00;;;6.45;75.76
75401;BME280;63974;47.538;18.972;2023-04-08T07:28:57;100560.09;;;6.50;76.26
75401;BME280;63974;47.538;18.972;2023-04-08T07:32:00;100552.63;;;6.56;76.01
75401;BME280;63974;47.538;18.972;2023-04-08T07:35:03;100555.75;;;6.79;75.19
75401;BME280;63974;47.538;18.972;2023-04-08T07:38:06;100560.34;;;6.85;75.04
75401;BME280;63974;47.538;18.972;2023-04-08T07:41:13;100555.13;;;7.13;74.59
75401;BME280;63974;47.538;18.972;2023-04-08T07:44:15;100560.88;;;7.07;73.93
75401;BME280;63974;47.538;18.972;2023-04-08T07:47:18;100571.16;;;7.17;73.89
75401;BME280;63974;47.538;18.972;2023-04-08T07:50:22;100566.75;;;7.36;73.02
75401;BME280;63974;47.538;18.972;2023-04-08T07:53:25;100567.31;;;7.30;72.63
75401;BME280;63974;47.538;18.972;2023-04-08T07:56:29;100567.81;;;7.43;73.06
75401;BME280;63974;47.538;18.972;2023-04-08T07:59:32;100569.66;;;7.24;73.00
75401;BME280;63974;47.538;18.972;2023-04-08T08:02:35;100574.84;;;7.05;73.54
75401;BME280;63974;47.538;18.972;2023-04-08T08:05:38;100579.25;;;6.85;75.23
75401;BME280;63974;47.538;18.972;2023-04-08T08:08:41;100583.84;;;6.91;74.99
75401;BME280;63974;47.538;18.972;2023-04-08T08:11:44;100589.44;;;6.77;74.85
75401;BME280;63974;47.538;18.972;2023-04-08T08:14:47;100589.31;;;6.69;75.81
75401;BME280;63974;47.538;18.972;2023-04-08T08:17:49;100587.66;;;6.78;74.46
75401;BME280;63974;47.538;18.972;2023-04-08T08:20:53;100593.00;;;6.57;74.84
75401;BME280;63974;47.538;18.972;2023-04-08T08:23:56;100586.34;;;6.46;75.30
75401;BME280;63974;47.538;18.972;2023-04-08T08:27:00;100589.56;;;6.57;75.78
75401;BME280;63974;47.538;18.972;2023-04-08T08:30:06;100597.72;;;6.62;75.63
75401;BME280;63974;47.538;18.972;2023-04-08T08:33:13;100588.72;;;6.85;74.69
75401;BME280;63974;47.538;18.972;2023-04-08T08:36:16;100595.06;;;7.19;73.48
75401;BME280;63974;47.538;18.972;2023-04-08T08:39:19;100588.75;;;7.40;72.80
75401;BME280;63974;47.538;18.972;2023-04-08T08:42:23;100605.50;;;7.63;72.70
75401;BME280;63974;47.538;18.972;2023-04-08T08:45:26;100601.47;;;7.88;70.34
75401;BME280;63974;47.538;18.972;2023-04-08T08:48:30;100604.25;;;7.77;69.74
75401;BME280;63974;47.538;18.972;2023-04-08T08:51:35;100602.97;;;8.08;69.38
75401;BME280;63974;47.538;18.972;2023-04-08T08:54:38;100608.16;;;8.35;69.08
75401;BME280;63974;47.538;18.972;2023-04-08T08:57:40;100606.91;;;8.74;67.50
75401;BME280;63974;47.538;18.972;2023-04-08T09:00:43;100597.34;;;9.17;66.09
75401;BME280;63974;47.538;18.972;2023-04-08T09:04:05;100599.78;;;8.93;66.33
75401;BME280;63974;47.538;18.972;2023-04-08T09:07:10;100599.81;;;9.18;66.51
75401;BME280;63974;47.538;18.972;2023-04-08T09:10:27;100609.53;;;9.24;64.35
75401;BME280;63974;47.538;18.972;2023-04-08T09:13:34;100591.22;;;9.51;64.61
75401;BME280;63974;47.538;18.972;2023-04-08T09:16:41;100605.38;;;9.31;63.41
75401;BME280;63974;47.538;18.972;2023-04-08T09:20:04;100598.97;;;9.77;61.88
75401;BME280;63974;47.538;18.972;2023-04-08T09:23:13;100609.75;;;9.98;60.72
75401;BME280;63974;47.538;18.972;2023-04-08T09:26:23;100599.78;;;10.11;60.76
75401;BME280;63974;47.538;18.972;2023-04-08T09:29:26;100608.75;;;10.32;59.19
75401;BME280;63974;47.538;18.972;2023-04-08T09:32:53;100602.78;;;10.64;59.79
75401;BME280;63974;47.538;18.972;2023-04-08T09:35:57;100609.09;;;10.61;58.94
75401;BME280;63974;47.538;18.972;2023-04-08T09:39:00;100614.94;;;10.63;58.50
75401;BME280;63974;47.538;18.972;2023-04-08T09:42:04;100613.75;;;10.34;59.73
75401;BME280;63974;47.538;18.972;2023-04-08T09:45:11;100610.97;;;10.27;59.25
75401;BME280;63974;47.538;18.972;2023-04-08T09:48:21;100611.53;;;9.97;59.03
75401;BME280;63974;47.538;18.972;2023-04-08T09:51:28;100611.19;;;10.50;58.60
75401;BME280;63974;47.538;18.972;2023-04-08T09:55:04;100616.56;;;10.64;59.48
75401;BME280;63974;47.538;18.972;2023-04-08T09:58:21;100619.97;;;10.49;59.15
75401;BME280;63974;47.538;18.972;2023-04-08T10:01:39;100611.88;;;10.76;58.41
75401;BME280;63974;47.538;18.972;2023-04-08T10:04:47;100625.34;;;10.87;56.74
75401;BME280;63974;47.538;18.972;2023-04-08T10:07:55;100610.88;;;10.93;59.84
75401;BME280;63974;47.538;18.972;2023-04-08T10:11:00;100610.41;;;10.81;58.53
75401;BME280;63974;47.538;18.972;2023-04-08T10:14:03;100611.72;;;10.93;58.53
75401;BME280;63974;47.538;18.972;2023-04-08T10:17:25;100614.63;;;11.06;57.89
75401;BME280;63974;47.538;18.972;2023-04-08T10:23:56;100614.81;;;10.97;58.52
75401;BME280;63974;47.538;18.972;2023-04-08T10:27:39;100610.91;;;10.77;57.45
75401;BME280;63974;47.538;18.972;2023-04-08T10:30:55;100615.63;;;10.08;57.12
75401;BME280;63974;47.538;18.972;2023-04-08T10:34:14;100621.09;;;10.46;58.15
75401;BME280;63974;47.538;18.972;2023-04-08T10:37:19;100618.28;;;9.90;60.94
75401;BME280;63974;47.538;18.972;2023-04-08T10:40:22;100617.38;;;9.99;61.15
75401;BME280;63974;47.538;18.972;2023-04-08T10:43:31;100620.31;;;9.71;61.07
75401;BME280;63974;47.538;18.972;2023-04-08T10:46:37;100615.00;;;9.72;59.01
75401;BME280;63974;47.538;18.972;2023-04-08T10:49:42;100624.25;;;10.08;60.81
75401;BME280;63974;47.538;18.972;2023-04-08T10:52:52;100620.88;;;9.23;63.85
75401;BME280;63974;47.538;18.972;2023-04-08T10:56:12;100622.03;;;9.96;60.40
75401;BME280;63974;47.538;18.972;2023-04-08T10:59:26;100620.38;;;10.20;59.66
75401;BME280;63974;47.538;18.972;2023-04-08T11:02:32;100613.00;;;9.66;59.88
75401;BME280;63974;47.538;18.972;2023-04-08T11:05:38;100609.25;;;10.68;60.82
75401;BME280;63974;47.538;18.972;2023-04-08T11:08:41;100611.06;;;10.67;60.57
75401;BME280;63974;47.538;18.972;2023-04-08T11:11:45;100612.06;;;9.67;61.61
75401;BME280;63974;47.538;18.972;2023-04-08T11:14:49;100612.66;;;8.85;65.14
75401;BME280;63974;47.538;18.972;2023-04-08T11:17:54;100616.22;;;8.67;68.31
75401;BME280;63974;47.538;18.972;2023-04-08T11:20:57;100607.63;;;9.60;63.08
75401;BME280;63974;47.538;18.972;2023-04-08T11:24:06;100622.03;;;9.29;62.80
75401;BME280;63974;47.538;18.972;2023-04-08T11:27:11;100613.38;;;9.46;59.45
75401;BME280;63974;47.538;18.972;2023-04-08T11:30:14;100607.81;;;9.58;60.86
75401;BME280;63974;47.538;18.972;2023-04-08T11:33:17;100620.47;;;9.10;61.58
75401;BME280;63974;47.538;18.972;2023-04-08T11:36:20;100630.50;;;8.71;64.48
75401;BME280;63974;47.538;18.972;2023-04-08T11:39:23;100620.38;;;9.02;63.33
75401;BME280;63974;47.538;18.972;2023-04-08T11:42:29;100623.47;;;8.46;64.45
75401;BME280;63974;47.538;18.972;2023-04-08T11:45:37;100622.56;;;8.72;62.75
75401;BME280;63974;47.538;18.972;2023-04-08T11:48:56;100617.91;;;8.41;65.03
75401;BME280;63974;47.538;18.972;2023-04-08T11:51:59;100619.66;;;8.92;63.69
75401;BME280;63974;47.538;18.972;2023-04-08T11:55:03;100615.47;;;8.74;65.84
75401;BME280;63974;47.538;18.972;2023-04-08T11:58:06;100613.63;;;8.49;63.29
75401;BME280;63974;47.538;18.972;2023-04-08T12:01:09;100608.16;;;8.08;65.30
75401;BME280;63974;47.538;18.972;2023-04-08T12:04:12;100604.66;;;8.44;63.37
75401;BME280;63974;47.538;18.972;2023-04-08T12:07:15;100604.28;;;8.91;64.55
75401;BME280;63974;47.538;18.972;2023-04-08T12:10:17;100602.38;;;9.44;64.90
75401;BME280;63974;47.538;18.972;2023-04-08T12:13:20;100604.44;;;8.89;65.40
75401;BME280;63974;47.538;18.972;2023-04-08T12:16:23;100607.41;;;9.20;64.53
75401;BME280;63974;47.538;18.972;2023-04-08T12:19:26;100602.16;;;8.86;64.58
75401;BME280;63974;47.538;18.972;2023-04-08T12:22:29;100609.28;;;8.67;65.22
75401;BME280;63974;47.538;18.972;2023-04-08T12:25:31;100601.84;;;9.66;63.80
75401;BME280;63974;47.538;18.972;2023-04-08T12:28:34;100605.19;;;9.92;60.98
75401;BME280;63974;47.538;18.972;2023-04-08T12:31:37;100596.72;;;10.23;61.28
75401;BME280;63974;47.538;18.972;2023-04-08T12:34:41;100601.91;;;9.23;64.19
75401;BME280;63974;47.538;18.972;2023-04-08T12:37:43;100600.41;;;9.38;64.09
75401;BME280;63974;47.538;18.972;2023-04-08T12:40:47;100599.38;;;9.98;65.61
75401;BME280;63974;47.538;18.972;2023-04-08T12:43:51;100596.28;;;10.52;59.63
75401;BME280;63974;47.538;18.972;2023-04-08T12:46:54;100609.50;;;10.17;58.38
75401;BME280;63974;47.538;18.972;2023-04-08T12:49:57;100602.03;;;9.72;59.92
75401;BME280;63974;47.538;18.972;2023-04-08T12:53:00;100599.84;;;9.60;61.22
75401;BME280;63974;47.538;18.972;2023-04-08T12:56:03;100608.13;;;9.30;63.45
75401;BME280;63974;47.538;18.972;2023-04-08T12:59:06;100604.56;;;9.56;64.11
75401;BME280;63974;47.538;18.972;2023-04-08T13:02:09;100602.63;;;9.58;64.03
75401;BME280;63974;47.538;18.972;2023-04-08T13:05:12;100605.22;;;9.07;65.21
75401;BME280;63974;47.538;18.972;2023-04-08T13:08:15;100600.94;;;9.83;63.41
75401;BME280;63974;47.538;18.972;2023-04-08T13:11:19;100596.66;;;9.66;61.41
75401;BME280;63974;47.538;18.972;2023-04-08T13:14:22;100599.97;;;9.50;61.53
75401;BME280;63974;47.538;18.972;2023-04-08T13:17:26;100606.25;;;8.72;65.99
75401;BME280;63974;47.538;18.972;2023-04-08T13:20:29;100590.22;;;9.44;64.14
75401;BME280;63974;47.538;18.972;2023-04-08T13:23:32;100594.16;;;9.90;62.65
75401;BME280;63974;47.538;18.972;2023-04-08T13:26:35;100595.22;;;9.38;61.87
75401;BME280;63974;47.538;18.972;2023-04-08T13:29:38;100593.59;;;9.70;62.60
75401;BME280;63974;47.538;18.972;2023-04-08T13:32:41;100598.09;;;9.60;63.72
75401;BME280;63974;47.538;18.972;2023-04-08T13:35:44;100588.22;;;9.64;63.96
75401;BME280;63974;47.538;18.972;2023-04-08T13:38:47;100588.13;;;9.81;64.96
75401;BME280;63974;47.538;18.972;2023-04-08T13:41:50;100587.16;;;9.82;66.32
75401;BME280;63974;47.538;18.972;2023-04-08T13:44:53;100593.78;;;9.43;66.83
75401;BME280;63974;47.538;18.972;2023-04-08T13:47:57;100588.63;;;9.43;66.88
75401;BME280;63974;47.538;18.972;2023-04-08T13:51:02;100587.34;;;9.22;67.16
75401;BME280;63974;47.538;18.972;2023-04-08T13:54:05;100590.38;;;8.92;69.45
75401;BME280;63974;47.538;18.972;2023-04-08T13:57:08;100595.25;;;8.95;70.74
75401;BME280;63974;47.538;18.972;2023-04-08T14:00:11;100595.84;;;9.06;69.55
75401;BME280;63974;47.538;18.972;2023-04-08T14:03:16;100592.06;;;9.01;68.57
75401;BME280;63974;47.538;18.972;2023-04-08T14:06:19;100593.03;;;9.25;68.22
75401;BME280;63974;47.538;18.972;2023-04-08T14:09:22;100590.72;;;9.48;67.40
75401;BME280;63974;47.538;18.972;2023-04-08T14:12:25;100592.31;;;9.74;66.74
75401;BME280;63974;47.538;18.972;2023-04-08T14:15:28;100594.47;;;9.87;65.84
75401;BME280;63974;47.538;18.972;2023-04-08T14:18:30;100591.41;;;9.50;65.59
75401;BME280;63974;47.538;18.972;2023-04-08T14:21:33;100589.47;;;9.52;65.60
75401;BME280;63974;47.538;18.972;2023-04-08T14:24:36;100590.03;;;9.38;67.24
75401;BME280;63974;47.538;18.972;2023-04-08T14:27:39;100589.16;;;9.29;66.67
75401;BME280;63974;47.538;18.972;2023-04-08T14:31:00;100594.50;;;9.02;66.15
75401;BME280;63974;47.538;18.972;2023-04-08T14:34:03;100596.56;;;8.99;67.30
75401;BME280;63974;47.538;18.972;2023-04-08T14:37:06;100594.59;;;8.93;67.42
75401;BME280;63974;47.538;18.972;2023-04-08T14:40:09;100589.88;;;8.88;68.19
75401;BME280;63974;47.538;18.972;2023-04-08T14:43:14;100594.97;;;8.63;64.78
75401;BME280;63974;47.538;18.972;2023-04-08T14:46:17;100584.78;;;8.62;66.23
75401;BME280;63974;47.538;18.972;2023-04-08T14:49:20;100591.69;;;8.71;67.00
75401;BME280;63974;47.538;18.972;2023-04-08T14:52:22;100580.69;;;9.19;67.90
75401;BME280;63974;47.538;18.972;2023-04-08T14:55:26;100583.50;;;9.34;66.92
75401;BME280;63974;47.538;18.972;2023-04-08T14:58:31;100588.34;;;9.29;64.41
75401;BME280;63974;47.538;18.972;2023-04-08T15:01:34;100588.59;;;8.75;65.93
75401;BME280;63974;47.538;18.972;2023-04-08T15:04:37;100588.53;;;8.84;67.50
75401;BME280;63974;47.538;18.972;2023-04-08T15:07:40;100586.63;;;8.86;66.93
75401;BME280;63974;47.538;18.972;2023-04-08T15:10:43;100590.78;;;9.05;65.99
75401;BME280;63974;47.538;18.972;2023-04-08T15:13:46;100584.25;;;9.18;65.62
75401;BME280;63974;47.538;18.972;2023-04-08T15:16:48;100573.97;;;9.34;63.39
75401;BME280;63974;47.538;18.972;2023-04-08T15:19:51;100572.28;;;9.51;63.66
75401;BME280;63974;47.538;18.972;2023-04-08T15:22:54;100582.88;;;9.32;64.30
75401;BME280;63974;47.538;18.972;2023-04-08T15:25:57;100573.91;;;9.26;64.15
75401;BME280;63974;47.538;18.972;2023-04-08T15:29:00;100584.03;;;9.12;65.27
75401;BME280;63974;47.538;18.972;2023-04-08T15:32:05;100573.34;;;8.89;64.12
75401;BME280;63974;47.538;18.972;2023-04-08T15:35:09;100584.13;;;8.77;66.20
75401;BME280;63974;47.538;18.972;2023-04-08T15:38:12;100586.41;;;8.63;67.91
75401;BME280;63974;47.538;18.972;2023-04-08T15:41:18;100591.38;;;8.56;68.37
75401;BME280;63974;47.538;18.972;2023-04-08T15:44:21;100588.13;;;8.37;68.69
75401;BME280;63974;47.538;18.972;2023-04-08T15:47:24;100593.38;;;8.27;68.47
75401;BME280;63974;47.538;18.972;2023-04-08T15:50:28;100595.44;;;8.14;69.45
75401;BME280;63974;47.538;18.972;2023-04-08T15:53:31;100597.09;;;8.15;69.60
75401;BME280;63974;47.538;18.972;2023-04-08T15:56:34;100608.53;;;8.13;70.52
75401;BME280;63974;47.538;18.972;2023-04-08T15:59:37;100601.84;;;8.20;71.07
75401;BME280;63974;47.538;18.972;2023-04-08T16:02:39;100599.16;;;8.12;69.60
75401;BME280;63974;47.538;18.972;2023-04-08T16:05:43;100594.00;;;8.12;70.00
75401;BME280;63974;47.538;18.972;2023-04-08T16:08:46;100603.66;;;8.10;71.73
75401;BME280;63974;47.538;18.972;2023-04-08T16:11:50;100604.88;;;8.15;71.71